Carriel Sur Airport


Codes: SCIE/CCP
Name: Carriel Sur Airport
City: Concepcion
Country: Chile
Elevation: 26 ft.
Wikipedia:

Photos at Carriel Sur Airport


   Photos courtesy of SpottingLog. You can add your own sightings and photos by signing up for a free trial today.



No photos found.

Weather at Carriel Sur Airport


Time (UTC)DescriptionTempratureWindCloud coverageVisibilityPressureHumidity
26-Jun-2024 00:00Clear Sky9°C2 mph, SE0%10000m1028hPa76%
26-Jun-2024 03:00Few Clouds8°C2 mph, SE18%10000m1028hPa74%
26-Jun-2024 06:00Broken Clouds8°C2 mph, NE51%10000m1029hPa76%
26-Jun-2024 09:00Overcast Clouds9°C4 mph, N99%10000m1028hPa78%
26-Jun-2024 12:00Overcast Clouds9°C7 mph, N100%10000m1028hPa82%
26-Jun-2024 15:00Overcast Clouds10°C4 mph, N100%10000m1028hPa80%
26-Jun-2024 18:00Overcast Clouds11°C2 mph, N100%10000m1027hPa81%
26-Jun-2024 21:00Overcast Clouds11°C4 mph, N100%10000m1024hPa85%
27-Jun-2024 00:00Overcast Clouds11°C4 mph, NE100%10000m1023hPa89%
27-Jun-2024 03:00Overcast Clouds11°C2 mph, NE100%10000m1022hPa90%
27-Jun-2024 06:00Overcast Clouds11°C4 mph, N99%10000m1020hPa93%
27-Jun-2024 09:00Overcast Clouds11°C4 mph, N100%10000m1019hPa92%
27-Jun-2024 12:00Overcast Clouds12°C7 mph, NW100%9301m1018hPa96%
27-Jun-2024 15:00Light Rain12°C7 mph, NW100%10000m1017hPa95%
27-Jun-2024 18:00Light Rain12°C9 mph, SW100%10000m1016hPa90%
27-Jun-2024 21:00Overcast Clouds11°C11 mph, SW98%10000m1017hPa82%
28-Jun-2024 00:00Overcast Clouds9°C7 mph, S92%10000m1020hPa88%
28-Jun-2024 03:00Scattered Clouds8°C7 mph, SE38%10000m1022hPa89%
28-Jun-2024 06:00Few Clouds7°C7 mph, SE21%10000m1023hPa88%
28-Jun-2024 09:00Clear Sky7°C9 mph, SE1%10000m1023hPa75%
28-Jun-2024 12:00Clear Sky7°C11 mph, SE0%10000m1023hPa71%
28-Jun-2024 15:00Clear Sky9°C9 mph, S0%10000m1024hPa61%
28-Jun-2024 18:00Clear Sky11°C9 mph, SE1%10000m1022hPa53%
28-Jun-2024 21:00Clear Sky10°C9 mph, SE0%10000m1023hPa65%
29-Jun-2024 00:00Clear Sky7°C9 mph, SE2%10000m1024hPa77%
29-Jun-2024 03:00Scattered Clouds6°C9 mph, SE36%10000m1024hPa75%
29-Jun-2024 06:00Broken Clouds5°C9 mph, SE61%10000m1023hPa74%
29-Jun-2024 09:00Overcast Clouds5°C9 mph, SE100%10000m1023hPa76%
29-Jun-2024 12:00Overcast Clouds4°C7 mph, SE99%10000m1023hPa75%
29-Jun-2024 15:00Overcast Clouds8°C7 mph, SE98%10000m1023hPa56%
29-Jun-2024 18:00Overcast Clouds11°C4 mph, S99%10000m1021hPa46%
29-Jun-2024 21:00Overcast Clouds10°C2 mph, S100%10000m1021hPa58%
30-Jun-2024 00:00Overcast Clouds8°C4 mph, SE98%10000m1022hPa63%
30-Jun-2024 03:00Few Clouds7°C4 mph, SE24%10000m1023hPa61%
30-Jun-2024 06:00Few Clouds7°C4 mph, SE12%10000m1023hPa62%
30-Jun-2024 09:00Clear Sky6°C4 mph, SE0%10000m1023hPa61%
30-Jun-2024 12:00Clear Sky5°C4 mph, SE0%10000m1025hPa60%
30-Jun-2024 15:00Clear Sky9°C4 mph, SE0%10000m1025hPa47%
30-Jun-2024 18:00Scattered Clouds12°C2 mph, SW29%10000m1023hPa45%
30-Jun-2024 21:00Overcast Clouds10°C2 mph, SW100%10000m1023hPa60%